Aviation Digital Data Service (ADDS)

Output produced by METARs form (0152 UTC 22 June 2018)
found at http://www.aviationweather.gov/adds/metars/
 
EFKU 220120Z AUTO 08005KT 010V180 9999 RA SCT025 OVC063 12/11 Q0995 RETSRA
EFKU 220050Z AUTO 07005KT 9999 -RA OVC026 13/10 Q0996
EFKU 220020Z AUTO 10004KT 9999 -RA BKN047 OVC077 14/09 Q0997
EFKU 212350Z AUTO 09005KT 9999 -RA OVC056 15/09 Q0998
EFKU 212320Z AUTO 12006KT 060V160 9999 -DZ OVC057 15/08 Q0999
EFKU 212250Z AUTO 12007KT 080V160 CAVOK 16/08 Q0999
EFKU 212220Z AUTO 12007KT 070V160 CAVOK 16/08 Q0999
EFKU 212150Z AUTO 12006KT 070V160 CAVOK 16/07 Q1000
EFKU 212120Z AUTO 12009KT 080V150 CAVOK 16/07 Q1000
EFKU 212050Z AUTO VRB02KT CAVOK 16/06 Q1000
EFKU 212020Z AUTO VRB02KT CAVOK 16/08 Q1001
EFKU 211950Z AUTO 13004KT 9999 -RA OVC081 16/07 Q1001
EFKU 211920Z AUTO 11004KT CAVOK 17/06 Q1001
EFKU 211850Z AUTO 12003KT CAVOK 17/05 Q1002
EFKU 211820Z AUTO 14007G17KT 100V180 CAVOK 18/01 Q1002
EFKU 211750Z AUTO 14005KT CAVOK 17/05 Q1002
EFKU 211720Z AUTO 13003KT CAVOK 18/06 Q1002
EFKU 211650Z AUTO 12003KT CAVOK 18/04 Q1002
EFKU 211620Z AUTO 13004KT CAVOK 18/03 Q1002
EFKU 211550Z AUTO 15005KT CAVOK 19/04 Q1002
EFKU 211520Z AUTO 16007KT CAVOK 19/03 Q1003
EFKU 211450Z AUTO VRB03KT 150V270 CAVOK 19/02 Q1003
EFKU 211350Z AUTO 23008KT CAVOK 20/01 Q1003
EFKU 211320Z AUTO 19007KT 160V240 CAVOK 20/02 Q1003
EFKU 211250Z AUTO 24006KT CAVOK 19/02 Q1003
EFKU 211220Z AUTO 22007KT 180V260 CAVOK 19/03 Q1003
EFKU 211150Z AUTO 21009KT CAVOK 19/02 Q1003
EFKU 211120Z AUTO 21009KT CAVOK 19/04 Q1003
EFKU 211050Z AUTO 21008KT CAVOK 19/03 Q1003
EFKU 211020Z AUTO 21010KT CAVOK 19/04 Q1003
EFKU 210950Z AUTO 22008KT CAVOK 18/04 Q1003
EFKU 210920Z AUTO 24009KT 190V280 CAVOK 18/04 Q1003
EFKU 210850Z AUTO 23009KT 200V270 CAVOK 17/03 Q1003
EFKU 210820Z AUTO 24010KT CAVOK 17/03 Q1003
EFKU 210750Z AUTO 23008KT CAVOK 17/04 Q1003
EFKU 210720Z AUTO 23009KT CAVOK 16/05 Q1003
EFKU 210650Z AUTO 23008KT CAVOK 15/05 Q1004
EFKU 210620Z AUTO 22007KT CAVOK 15/05 Q1004
EFKU 210550Z AUTO 20006KT CAVOK 14/05 Q1004
EFKU 210520Z AUTO 23006KT CAVOK 14/04 Q1003
EFKU 210450Z AUTO 23007KT CAVOK 13/04 Q1003
EFKU 210420Z AUTO 23008KT CAVOK 13/04 Q1003
EFKU 210350Z AUTO 25006KT CAVOK 12/03 Q1003
EFKU 210320Z AUTO 25008KT CAVOK 12/04 Q1003
EFKU 210250Z AUTO 25006KT CAVOK 11/04 Q1003
EFKU 210220Z AUTO 23007KT CAVOK 11/03 Q1003
EFKU 210150Z AUTO 24008KT CAVOK 11/04 Q1003
EFKU 210120Z AUTO 24008KT CAVOK 11/04 Q1003
EFKU 210050Z AUTO 24007KT CAVOK 11/04 Q1003
EFKU 210020Z AUTO 24007KT CAVOK 12/04 Q1003
EFKU 202350Z AUTO 24007KT CAVOK 12/04 Q1003
EFKU 202320Z AUTO 24007KT CAVOK 12/04 Q1003
EFKU 202250Z AUTO 24008KT CAVOK 13/04 Q1003
EFKU 202220Z AUTO 25007KT CAVOK 13/04 Q1003
EFKU 202150Z AUTO 24006KT CAVOK 13/05 Q1002
EFKU 202120Z AUTO 24006KT CAVOK 12/05 Q1002
EFKU 202050Z AUTO 26005KT CAVOK 14/04 Q1002
EFKU 202020Z AUTO 27007KT CAVOK 14/04 Q1002
EFKU 201950Z AUTO 27005KT CAVOK 15/04 Q1002
EFKU 201920Z AUTO 28008KT CAVOK 15/03 Q1002
EFKU 201850Z AUTO 28010KT CAVOK 16/03 Q1002
EFKU 201820Z AUTO 28010KT CAVOK 16/03 Q1002
EFKU 201750Z AUTO 28015KT CAVOK 17/03 Q1002
EFKU 201720Z AUTO 28014KT CAVOK 17/02 Q1002
EFKU 201650Z AUTO 27013KT 230V300 CAVOK 17/03 Q1002
EFKU 201620Z AUTO 27015G25KT 230V300 CAVOK 17/02 Q1001
EFKU 201550Z AUTO 27014G24KT 230V300 CAVOK 18/03 Q1001
EFKU 201520Z AUTO 28019KT CAVOK 18/04 Q1001
EFKU 201450Z AUTO 27016KT 230V310 CAVOK 18/04 Q1001
EFKU 201420Z AUTO 26018G29KT CAVOK 18/04 Q1001